createdAt,value
2024-03-02T00:00:00.909Z,77.49
2024-03-02T00:02:02.604Z,77.36
2024-03-02T00:04:09.182Z,77.25
2024-03-02T00:06:11.559Z,77.45
2024-03-02T00:08:20.291Z,77.46
2024-03-02T00:10:30.049Z,77.45
2024-03-02T00:12:31.828Z,77.46
2024-03-02T00:14:33.681Z,77.17
2024-03-02T00:16:35.597Z,77.51
2024-03-02T00:18:38.058Z,77.47
2024-03-02T00:20:40.631Z,77.33
2024-03-02T00:22:42.325Z,77.42
2024-03-02T00:24:44.456Z,77.43
2024-03-02T00:26:49.323Z,77.58
2024-03-02T00:28:55.304Z,77.38
2024-03-02T00:31:07.290Z,77.53
2024-03-02T00:33:09.126Z,77.55
2024-03-02T00:35:11.505Z,77.42
2024-03-02T00:37:13.348Z,77.47
2024-03-02T00:39:18.394Z,77.58
2024-03-02T00:41:33.048Z,77.74
2024-03-02T00:43:48.076Z,77.86
2024-03-02T00:45:50.390Z,77.44
2024-03-02T00:47:53.110Z,77.60
2024-03-02T00:49:54.841Z,77.89
2024-03-02T00:51:57.224Z,77.63
2024-03-02T00:54:02.168Z,77.66
2024-03-02T00:56:04.316Z,77.85
2024-03-02T00:58:05.997Z,77.93
2024-03-02T01:00:11.465Z,77.72
2024-03-02T01:02:13.163Z,77.84
2024-03-02T01:04:15.501Z,77.66
2024-03-02T01:06:18.327Z,77.76
2024-03-02T01:08:20.118Z,77.81
2024-03-02T01:10:21.867Z,77.78
2024-03-02T01:12:23.664Z,77.92
2024-03-02T01:14:25.347Z,77.96
2024-03-02T01:16:27.103Z,77.83
2024-03-02T01:18:28.846Z,77.97
2024-03-02T01:20:30.604Z,77.91
2024-03-02T01:22:32.367Z,77.81
2024-03-02T01:24:34.418Z,77.69
2024-03-02T01:26:36.143Z,78.05
2024-03-02T01:28:37.869Z,78.15
2024-03-02T01:30:39.657Z,78.01
2024-03-02T01:32:41.443Z,77.73
2024-03-02T01:34:43.176Z,77.83
2024-03-02T01:36:44.936Z,77.99
2024-03-02T01:38:46.704Z,77.98
2024-03-02T01:40:48.620Z,78.08
2024-03-02T01:42:50.507Z,77.96
2024-03-02T01:44:52.729Z,78.00
2024-03-02T01:46:54.458Z,78.03
2024-03-02T01:48:56.213Z,78.16
2024-03-02T01:50:58.544Z,78.03
2024-03-02T01:53:01.337Z,78.05
2024-03-02T01:55:03.083Z,78.20
2024-03-02T01:57:05.098Z,78.15
2024-03-02T01:59:07.008Z,78.26
2024-03-02T02:01:08.954Z,78.03
2024-03-02T02:03:10.904Z,78.14
2024-03-02T02:05:12.784Z,78.34
2024-03-02T02:07:15.847Z,78.02
2024-03-02T02:09:19.682Z,78.20
2024-03-02T02:11:21.543Z,78.19
2024-03-02T02:13:23.313Z,78.24
2024-03-02T02:15:32.011Z,78.20
2024-03-02T02:17:33.947Z,78.24
2024-03-02T02:19:35.703Z,78.39
2024-03-02T02:21:37.496Z,78.25
2024-03-02T02:23:39.190Z,78.30
2024-03-02T02:25:40.905Z,78.60
2024-03-02T02:27:42.685Z,78.38
2024-03-02T02:29:44.526Z,78.40
2024-03-02T02:31:46.217Z,78.18
2024-03-02T02:33:47.998Z,78.24
2024-03-02T02:35:49.734Z,78.26
2024-03-02T02:37:52.902Z,78.44
2024-03-02T02:39:54.653Z,78.56
2024-03-02T02:41:56.396Z,78.18
2024-03-02T02:43:58.133Z,78.41
2024-03-02T02:46:00.010Z,78.49
2024-03-02T02:48:03.374Z,78.28
2024-03-02T02:50:05.900Z,78.50
2024-03-02T02:52:07.744Z,78.32
2024-03-02T02:54:09.493Z,78.31
2024-03-02T02:56:11.282Z,78.57
2024-03-02T02:58:13.264Z,78.43
2024-03-02T03:00:17.439Z,78.48
2024-03-02T03:02:20.010Z,78.33
2024-03-02T03:04:21.767Z,78.52
2024-03-02T03:06:23.532Z,78.53
2024-03-02T03:08:25.636Z,78.32
2024-03-02T03:10:28.924Z,78.44
2024-03-02T03:12:31.224Z,78.46
2024-03-02T03:14:32.955Z,78.49
2024-03-02T03:16:34.677Z,78.54
2024-03-02T03:18:36.428Z,78.69
2024-03-02T03:20:38.252Z,78.55
2024-03-02T03:22:40.410Z,78.56
2024-03-02T03:24:42.184Z,78.37
2024-03-02T03:26:43.910Z,78.49
2024-03-02T03:28:45.819Z,78.58
2024-03-02T03:30:47.601Z,78.46
2024-03-02T03:32:51.984Z,78.41
2024-03-02T03:34:53.704Z,78.45
2024-03-02T03:36:55.582Z,78.57
2024-03-02T03:38:57.305Z,78.62
2024-03-02T03:40:59.061Z,78.65
2024-03-02T03:43:01.238Z,78.45
2024-03-02T03:45:03.750Z,78.45
2024-03-02T03:47:05.584Z,78.66
2024-03-02T03:49:07.335Z,78.45
2024-03-02T03:51:09.025Z,78.56
2024-03-02T03:53:11.031Z,78.60
2024-03-02T03:55:12.848Z,78.58
2024-03-02T03:57:14.631Z,78.49
2024-03-02T03:59:16.378Z,78.56
2024-03-02T04:01:18.219Z,78.60
2024-03-02T04:03:20.005Z,78.35
2024-03-02T04:05:21.762Z,78.68
2024-03-02T04:07:23.478Z,78.46
2024-03-02T04:09:25.202Z,78.70
2024-03-02T04:11:26.990Z,78.35
2024-03-02T04:13:28.708Z,78.61
2024-03-02T04:15:30.468Z,78.44
2024-03-02T04:17:34.040Z,78.50
2024-03-02T04:19:35.773Z,78.22
2024-03-02T04:21:37.602Z,78.24
2024-03-02T04:23:39.674Z,78.38
2024-03-02T04:25:41.432Z,78.63
2024-03-02T04:27:43.145Z,79.30
2024-03-02T04:29:44.918Z,79.68
2024-03-02T04:31:46.688Z,79.67
2024-03-02T04:33:48.670Z,79.44
2024-03-02T04:35:50.404Z,79.38
2024-03-02T04:37:52.324Z,79.41
2024-03-02T04:39:54.075Z,79.47
2024-03-02T04:41:55.909Z,79.33
2024-03-02T04:43:57.738Z,79.50
2024-03-02T04:46:00.203Z,79.35
2024-03-02T04:48:01.937Z,79.25
2024-03-02T04:50:03.954Z,79.21
2024-03-02T04:52:05.865Z,79.23
2024-03-02T04:54:07.549Z,79.27
2024-03-02T04:56:40.479Z,79.35
2024-03-02T04:58:42.183Z,79.21
2024-03-02T05:00:44.422Z,79.21
2024-03-02T05:02:46.267Z,79.30
2024-03-02T05:04:49.372Z,79.26
2024-03-02T05:06:54.449Z,79.06
2024-03-02T05:08:56.246Z,79.21
2024-03-02T05:11:17.966Z,79.18
2024-03-02T05:13:19.789Z,79.19
2024-03-02T05:15:22.930Z,79.16
2024-03-02T05:17:24.654Z,79.11
2024-03-02T05:19:26.619Z,79.24
2024-03-02T05:21:28.416Z,78.98
2024-03-02T05:23:30.249Z,78.85
2024-03-02T05:25:32.110Z,78.90
2024-03-02T05:27:34.454Z,78.92
2024-03-02T05:29:36.243Z,78.97
2024-03-02T05:31:37.934Z,78.84
2024-03-02T05:33:39.981Z,78.99
2024-03-02T05:35:41.813Z,78.94
2024-03-02T05:37:43.569Z,79.18
2024-03-02T05:39:45.452Z,79.23
2024-03-02T05:41:47.159Z,79.29
2024-03-02T05:43:48.857Z,79.37
2024-03-02T05:45:50.772Z,79.22
2024-03-02T05:47:52.471Z,79.17
2024-03-02T05:49:54.219Z,79.24
2024-03-02T05:51:56.176Z,79.22
2024-03-02T05:53:57.883Z,79.14
2024-03-02T05:56:00.875Z,79.41
2024-03-02T05:58:04.529Z,79.33
2024-03-02T06:00:09.458Z,79.32
2024-03-02T06:02:11.242Z,79.36
2024-03-02T06:04:13.147Z,79.17
2024-03-02T06:06:14.845Z,79.47
2024-03-02T06:08:16.562Z,79.35
2024-03-02T06:10:18.865Z,79.27
2024-03-02T06:12:20.611Z,79.33
2024-03-02T06:14:22.425Z,79.10
2024-03-02T06:16:24.359Z,79.31
2024-03-02T06:18:26.083Z,79.16
2024-03-02T06:20:28.299Z,79.26
2024-03-02T06:22:29.959Z,79.23
2024-03-02T06:24:31.706Z,79.52
2024-03-02T06:26:33.441Z,79.43
2024-03-02T06:28:37.736Z,79.52
2024-03-02T06:30:39.539Z,79.37
2024-03-02T06:32:41.357Z,79.39
2024-03-02T06:34:43.065Z,79.50
2024-03-02T06:36:44.835Z,79.33
2024-03-02T06:38:46.600Z,79.35
2024-03-02T06:40:48.393Z,79.40
2024-03-02T06:42:53.049Z,79.66
2024-03-02T06:44:54.931Z,79.41
2024-03-02T06:46:56.730Z,79.43
2024-03-02T06:48:58.622Z,79.42
2024-03-02T06:51:00.354Z,79.45
2024-03-02T06:53:02.068Z,79.43
2024-03-02T06:55:05.597Z,79.62
2024-03-02T06:57:07.519Z,79.36
2024-03-02T06:59:09.249Z,79.68
2024-03-02T07:01:11.341Z,79.45
2024-03-02T07:03:13.795Z,79.56
2024-03-02T07:05:15.725Z,79.69
2024-03-02T07:07:17.450Z,79.78
2024-03-02T07:09:19.195Z,79.79
2024-03-02T07:11:21.015Z,79.77
2024-03-02T07:13:22.769Z,79.80
2024-03-02T07:15:30.279Z,79.87
2024-03-02T07:17:32.954Z,79.82
2024-03-02T07:19:36.693Z,79.72
2024-03-02T07:21:38.579Z,80.21
2024-03-02T07:23:40.271Z,80.02
2024-03-02T07:27:46.805Z,80.25
2024-03-02T07:29:48.580Z,80.26
2024-03-02T07:31:50.399Z,80.27
2024-03-02T07:33:52.818Z,80.18
2024-03-02T07:36:00.041Z,80.42
2024-03-02T07:38:03.048Z,80.17
2024-03-02T07:40:05.149Z,80.54
2024-03-02T07:42:07.616Z,80.46
2024-03-02T07:44:09.354Z,80.18
2024-03-02T07:46:11.087Z,80.48
2024-03-02T07:48:13.031Z,80.42
2024-03-02T07:50:14.719Z,80.43
2024-03-02T07:52:16.480Z,80.16
2024-03-02T07:54:18.171Z,80.29
2024-03-02T07:56:23.680Z,80.20
2024-03-02T07:58:25.584Z,80.30
2024-03-02T08:00:28.610Z,80.54
2024-03-02T08:02:30.298Z,80.41
2024-03-02T08:04:32.162Z,80.52
2024-03-02T08:06:34.000Z,80.51
2024-03-02T08:08:35.780Z,80.34
2024-03-02T08:10:39.045Z,80.28
2024-03-02T08:12:41.054Z,80.53
2024-03-02T08:14:42.849Z,80.43
2024-03-02T08:16:44.762Z,80.52
2024-03-02T08:18:47.784Z,80.67
2024-03-02T08:20:49.534Z,80.71
2024-03-02T08:22:52.067Z,80.82
2024-03-02T08:24:54.055Z,80.69
2024-03-02T08:26:55.778Z,80.92
2024-03-02T08:28:57.585Z,80.68
2024-03-02T08:30:59.465Z,80.79
2024-03-02T08:33:01.340Z,80.95
2024-03-02T08:35:03.148Z,81.18
2024-03-02T08:37:05.300Z,80.99
2024-03-02T08:39:08.952Z,80.87
2024-03-02T08:41:10.757Z,80.58
2024-03-02T08:43:12.756Z,80.34
2024-03-02T08:45:14.865Z,80.40
2024-03-02T08:47:16.605Z,80.24
2024-03-02T08:49:19.771Z,80.41
2024-03-02T08:51:21.521Z,80.18
2024-03-02T08:53:23.332Z,80.12
2024-03-02T08:55:24.995Z,79.90
2024-03-02T08:57:27.880Z,79.92
2024-03-02T08:59:29.694Z,79.75
2024-03-02T09:01:31.539Z,79.46
2024-03-02T09:03:34.840Z,79.90
2024-03-02T09:05:36.683Z,79.47
2024-03-02T09:07:39.857Z,79.22
2024-03-02T09:09:41.648Z,79.18
2024-03-02T09:11:43.435Z,78.78
2024-03-02T09:13:45.649Z,78.52
2024-03-02T09:15:47.511Z,78.39
2024-03-02T09:17:49.365Z,78.03
2024-03-02T09:19:54.103Z,77.70
2024-03-02T09:21:57.261Z,77.47
2024-03-02T09:23:59.176Z,77.63
2024-03-02T09:26:01.192Z,77.13
2024-03-02T09:28:04.307Z,76.77
2024-03-02T09:30:09.497Z,76.79
2024-03-02T09:32:15.059Z,76.60
2024-03-02T09:34:17.318Z,76.30
2024-03-02T09:36:20.360Z,76.18
2024-03-02T09:38:22.100Z,75.22
2024-03-02T09:40:24.187Z,75.08
2024-03-02T09:42:27.212Z,74.71
2024-03-02T09:44:29.236Z,74.32
2024-03-02T09:46:31.050Z,73.88
2024-03-02T09:48:32.782Z,73.68
2024-03-02T09:50:34.802Z,73.43
2024-03-02T09:52:38.201Z,71.57
2024-03-02T09:54:40.081Z,70.96
2024-03-02T09:56:41.758Z,70.41
2024-03-02T09:58:45.277Z,69.78
2024-03-02T10:00:47.247Z,69.08
2024-03-02T10:02:50.438Z,67.29
2024-03-02T10:04:52.275Z,65.92
2024-03-02T10:07:13.633Z,66.01
2024-03-02T10:09:28.662Z,66.22
2024-03-02T10:11:32.578Z,65.70
2024-03-02T10:13:35.968Z,66.13
2024-03-02T10:15:39.539Z,65.83
2024-03-02T10:17:42.614Z,65.75
2024-03-02T10:19:44.297Z,65.09
2024-03-02T10:21:50.895Z,64.05
2024-03-02T10:23:52.670Z,63.88
2024-03-02T10:25:58.342Z,64.09
2024-03-02T10:28:01.457Z,63.59
2024-03-02T10:30:07.275Z,62.53
2024-03-02T10:32:12.902Z,62.05
2024-03-02T10:34:15.271Z,61.83
2024-03-02T10:36:17.480Z,60.02
2024-03-02T10:38:19.165Z,60.50
2024-03-02T10:40:24.481Z,60.76
2024-03-02T10:42:27.092Z,60.76
2024-03-02T10:44:29.833Z,60.68
2024-03-02T10:46:33.826Z,60.81
2024-03-02T10:48:38.168Z,60.99
2024-03-02T10:50:39.922Z,60.66
2024-03-02T10:52:41.847Z,60.69
2024-03-02T10:54:43.674Z,60.43
2024-03-02T10:56:47.702Z,59.66
2024-03-02T10:58:52.887Z,58.41
2024-03-02T11:00:55.749Z,58.39
2024-03-02T11:03:03.312Z,58.42
2024-03-02T11:05:11.355Z,58.04
2024-03-02T11:07:14.561Z,57.58
2024-03-02T11:09:20.140Z,56.11
2024-03-02T11:11:29.205Z,55.65
2024-03-02T11:13:37.605Z,54.75
2024-03-02T11:15:44.984Z,54.12
2024-03-02T11:17:48.030Z,53.64
2024-03-02T11:19:50.629Z,53.01
2024-03-02T11:21:52.998Z,50.96
2024-03-02T11:23:54.933Z,50.11
2024-03-02T11:25:56.628Z,49.23
2024-03-02T11:28:11.638Z,48.30
2024-03-02T11:30:39.192Z,47.00
2024-03-02T11:32:41.182Z,43.71
2024-03-02T11:34:53.775Z,44.32
2024-03-02T11:36:55.942Z,43.96
2024-03-02T11:38:58.046Z,42.13
2024-03-02T11:41:02.363Z,41.48
2024-03-02T11:43:07.538Z,41.64
2024-03-02T11:45:10.746Z,40.99
2024-03-02T11:47:15.784Z,39.15
2024-03-02T11:49:38.023Z,37.98
2024-03-02T11:51:51.689Z,37.71
2024-03-02T11:53:55.700Z,38.11
2024-03-02T11:55:57.437Z,36.37
2024-03-02T11:58:01.327Z,35.02
2024-03-02T12:00:04.963Z,37.65
2024-03-02T12:02:07.117Z,36.74
2024-03-02T12:04:09.339Z,36.27
2024-03-02T12:06:11.312Z,35.50
2024-03-02T12:08:14.189Z,35.91
2024-03-02T12:10:16.592Z,38.47
2024-03-02T12:12:20.242Z,35.21
2024-03-02T12:14:21.922Z,35.38
2024-03-02T12:16:26.819Z,33.46
2024-03-02T12:18:28.619Z,33.18
2024-03-02T12:20:32.587Z,32.68
2024-03-02T12:22:34.593Z,31.87
2024-03-02T12:24:36.486Z,33.02
2024-03-02T12:26:38.550Z,33.30
2024-03-02T12:28:40.990Z,32.90
2024-03-02T12:30:43.000Z,30.87
2024-03-02T12:32:45.671Z,40.17
2024-03-02T12:34:48.629Z,36.28
2024-03-02T12:36:53.498Z,37.88
2024-03-02T12:38:56.369Z,38.61
2024-03-02T12:40:58.121Z,36.93
2024-03-02T12:43:00.277Z,36.98
2024-03-02T12:45:02.147Z,34.61
2024-03-02T12:47:04.682Z,34.92
2024-03-02T12:49:11.227Z,42.40
2024-03-02T12:51:13.299Z,41.36
2024-03-02T12:53:18.145Z,39.31
2024-03-02T12:55:21.751Z,41.92
2024-03-02T12:57:27.414Z,38.28
2024-03-02T12:59:29.775Z,41.95
2024-03-02T13:01:32.666Z,37.59
2024-03-02T13:03:37.765Z,35.83
2024-03-02T13:05:40.637Z,38.85
2024-03-02T13:07:42.415Z,39.63
2024-03-02T13:09:44.559Z,38.69
2024-03-02T13:11:46.553Z,37.28
2024-03-02T13:13:48.505Z,38.72
2024-03-02T13:15:50.268Z,41.82
2024-03-02T13:17:52.305Z,39.04
2024-03-02T13:19:58.768Z,41.03
2024-03-02T13:22:00.487Z,38.93
2024-03-02T13:24:02.717Z,37.17
2024-03-02T13:26:04.849Z,41.27
2024-03-02T13:28:10.096Z,42.31
2024-03-02T13:30:12.398Z,42.73
2024-03-02T13:32:14.526Z,45.29
2024-03-02T13:34:16.211Z,50.27
2024-03-02T13:36:18.586Z,51.12
2024-03-02T13:38:21.346Z,47.72
2024-03-02T13:40:24.854Z,50.94
2024-03-02T13:42:27.027Z,51.55
2024-03-02T13:44:28.773Z,51.54
2024-03-02T13:46:30.447Z,53.90
2024-03-02T13:48:32.396Z,53.67
2024-03-02T13:50:34.171Z,52.81
2024-03-02T13:52:35.920Z,52.09
2024-03-02T13:54:56.055Z,54.42
2024-03-02T13:57:01.053Z,52.29
2024-03-02T13:59:02.909Z,51.33
2024-03-02T14:01:06.452Z,50.90
2024-03-02T14:03:08.659Z,51.10
2024-03-02T14:05:15.115Z,50.81
2024-03-02T14:07:16.827Z,45.03
2024-03-02T14:09:20.473Z,45.04
2024-03-02T14:11:22.199Z,50.08
2024-03-02T14:13:24.185Z,51.13
2024-03-02T14:15:26.073Z,51.76
2024-03-02T14:17:27.962Z,49.29
2024-03-02T14:19:29.756Z,52.83
2024-03-02T14:21:32.114Z,52.73
2024-03-02T14:23:33.815Z,55.65
2024-03-02T14:25:35.577Z,56.31
2024-03-02T14:27:51.091Z,57.14
2024-03-02T14:29:59.767Z,55.01
2024-03-02T14:32:01.490Z,52.66
2024-03-02T14:34:04.365Z,51.25
2024-03-02T14:36:06.526Z,50.50
2024-03-02T14:38:08.275Z,48.34
2024-03-02T14:40:11.040Z,47.13
2024-03-02T14:42:12.860Z,49.85
2024-03-02T14:44:14.590Z,48.89
2024-03-02T14:46:17.426Z,48.26
2024-03-02T14:48:19.201Z,49.82
2024-03-02T14:50:21.047Z,49.07
2024-03-02T14:52:22.896Z,47.16
2024-03-02T14:54:25.057Z,49.04
2024-03-02T14:56:26.953Z,51.21
2024-03-02T14:58:28.666Z,51.80
2024-03-02T15:00:30.517Z,51.60
2024-03-02T15:02:32.258Z,52.05
2024-03-02T15:04:33.961Z,53.79
2024-03-02T15:06:35.837Z,53.11
2024-03-02T15:08:37.677Z,52.23
2024-03-02T15:10:39.417Z,50.48
2024-03-02T15:12:41.174Z,51.55
2024-03-02T15:14:49.112Z,50.78
2024-03-02T15:16:50.933Z,51.90
2024-03-02T15:18:52.773Z,49.04
2024-03-02T15:20:54.656Z,49.71
2024-03-02T15:22:56.396Z,53.76
2024-03-02T15:24:58.279Z,51.69
2024-03-02T15:27:00.150Z,53.61
2024-03-02T15:29:01.827Z,50.30
2024-03-02T15:31:03.652Z,50.24
2024-03-02T15:33:05.580Z,50.83
2024-03-02T15:35:07.735Z,50.99
2024-03-02T15:37:09.751Z,51.95
2024-03-02T15:39:12.093Z,51.34
2024-03-02T15:41:13.788Z,50.60
2024-03-02T15:43:15.534Z,52.42
2024-03-02T15:45:17.959Z,53.23
2024-03-02T15:47:21.681Z,53.20
2024-03-02T15:49:23.491Z,53.99
2024-03-02T15:51:25.412Z,51.51
2024-03-02T15:53:27.098Z,52.31
2024-03-02T15:55:28.807Z,51.25
2024-03-02T15:57:30.630Z,51.13
2024-03-02T15:59:32.305Z,50.77
2024-03-02T16:01:34.470Z,52.67
2024-03-02T16:03:36.486Z,52.25
2024-03-02T16:05:39.917Z,51.04
2024-03-02T16:07:41.691Z,50.99
2024-03-02T16:09:43.631Z,52.79
2024-03-02T16:11:45.440Z,52.74
2024-03-02T16:13:47.144Z,52.93
2024-03-02T16:15:49.082Z,53.81
2024-03-02T16:17:50.933Z,54.25
2024-03-02T16:19:52.883Z,54.84
2024-03-02T16:21:55.071Z,56.61
2024-03-02T16:23:56.812Z,56.49
2024-03-02T16:25:58.929Z,58.37
2024-03-02T16:28:02.725Z,56.94
2024-03-02T16:30:05.015Z,58.39
2024-03-02T16:32:07.099Z,59.11
2024-03-02T16:34:08.857Z,58.43
2024-03-02T16:36:10.797Z,60.07
2024-03-02T16:38:13.534Z,59.73
2024-03-02T16:40:15.272Z,60.14
2024-03-02T16:42:21.418Z,60.16
2024-03-02T16:44:23.119Z,60.52
2024-03-02T16:46:24.831Z,61.21
2024-03-02T16:48:26.608Z,61.79
2024-03-02T16:50:28.478Z,61.95
2024-03-02T16:52:30.224Z,62.69
2024-03-02T16:54:31.897Z,62.96
2024-03-02T16:56:41.956Z,63.23
2024-03-02T16:58:43.665Z,64.03
2024-03-02T17:00:46.393Z,63.95
2024-03-02T17:02:48.101Z,64.50
2024-03-02T17:04:49.823Z,65.02
2024-03-02T17:06:52.641Z,65.18
2024-03-02T17:08:54.386Z,65.71
2024-03-02T17:10:56.342Z,66.38
2024-03-02T17:13:01.110Z,66.52
2024-03-02T17:15:02.900Z,67.17
2024-03-02T17:17:04.840Z,67.70
2024-03-02T17:19:09.114Z,67.47
2024-03-02T17:21:12.344Z,67.86
2024-03-02T17:23:14.156Z,68.45
2024-03-02T17:25:15.945Z,68.44
2024-03-02T17:27:17.665Z,68.62
2024-03-02T17:29:19.428Z,68.78
2024-03-02T17:31:21.160Z,68.96
2024-03-02T17:33:22.902Z,69.44
2024-03-02T17:35:25.294Z,69.44
2024-03-02T17:37:27.024Z,69.80
2024-03-02T17:39:28.832Z,69.82
2024-03-02T17:41:30.559Z,70.20
2024-03-02T17:43:32.289Z,70.00
2024-03-02T17:45:34.131Z,70.35
2024-03-02T17:47:36.011Z,70.45
2024-03-02T17:49:37.930Z,70.53
2024-03-02T17:51:39.788Z,70.89
2024-03-02T17:53:41.534Z,70.69
2024-03-02T17:55:43.237Z,70.96
2024-03-02T17:57:45.015Z,71.11
2024-03-02T17:59:46.706Z,70.93
2024-03-02T18:01:48.538Z,71.24
2024-03-02T18:03:50.643Z,71.31
2024-03-02T18:05:52.355Z,71.10
2024-03-02T18:07:54.362Z,71.29
2024-03-02T18:10:01.692Z,71.10
2024-03-02T18:12:04.764Z,71.74
2024-03-02T18:14:07.428Z,71.53
2024-03-02T18:16:09.219Z,71.80
2024-03-02T18:18:11.213Z,71.55
2024-03-02T18:20:13.385Z,71.64
2024-03-02T18:22:16.495Z,71.69
2024-03-02T18:24:18.918Z,71.51
2024-03-02T18:26:23.007Z,71.81
2024-03-02T18:28:25.696Z,72.04
2024-03-02T18:30:27.545Z,71.71
2024-03-02T18:32:29.315Z,71.90
2024-03-02T18:34:31.636Z,71.77
2024-03-02T18:36:33.460Z,71.70
2024-03-02T18:38:35.377Z,71.82
2024-03-02T18:40:37.138Z,71.86
2024-03-02T18:42:39.106Z,71.88
2024-03-02T18:44:42.518Z,71.85
2024-03-02T18:46:47.027Z,71.82
2024-03-02T18:48:49.936Z,72.03
2024-03-02T18:50:51.963Z,72.08
2024-03-02T18:52:53.889Z,71.78
2024-03-02T18:54:55.723Z,71.92
2024-03-02T18:56:57.531Z,71.83
2024-03-02T18:58:59.698Z,72.02
2024-03-02T19:01:01.733Z,71.84
2024-03-02T19:03:04.855Z,71.89
2024-03-02T19:05:07.321Z,71.82
2024-03-02T19:07:09.219Z,71.96
2024-03-02T19:09:11.401Z,72.16
2024-03-02T19:11:17.316Z,72.14
2024-03-02T19:13:19.235Z,72.17
2024-03-02T19:15:21.117Z,72.38
2024-03-02T19:17:22.895Z,72.59
2024-03-02T19:19:27.671Z,72.61
2024-03-02T19:21:29.789Z,72.93
2024-03-02T19:23:36.465Z,72.85
2024-03-02T19:25:41.756Z,72.69
2024-03-02T19:27:43.762Z,72.47
2024-03-02T19:29:48.808Z,72.57
2024-03-02T19:31:50.515Z,72.66
2024-03-02T19:33:52.935Z,72.83
2024-03-02T19:35:55.635Z,72.61
2024-03-02T19:37:57.472Z,72.81
2024-03-02T19:39:59.198Z,73.02
2024-03-02T19:42:01.844Z,72.73
2024-03-02T19:44:04.890Z,72.81
2024-03-02T19:46:06.874Z,72.93
2024-03-02T19:48:08.781Z,72.81
2024-03-02T19:50:13.958Z,72.85
2024-03-02T19:52:16.266Z,72.93
2024-03-02T19:54:18.082Z,73.01
2024-03-02T19:56:20.419Z,73.04
2024-03-02T19:58:22.230Z,73.26
2024-03-02T20:00:24.258Z,73.30
2024-03-02T20:02:28.388Z,73.33
2024-03-02T20:04:30.186Z,73.22
2024-03-02T20:06:31.987Z,73.41
2024-03-02T20:08:33.724Z,73.34
2024-03-02T20:10:35.719Z,73.42
2024-03-02T20:12:38.575Z,73.41
2024-03-02T20:14:40.900Z,73.55
2024-03-02T20:16:45.783Z,73.37
2024-03-02T20:18:47.520Z,73.36
2024-03-02T20:20:49.338Z,73.61
2024-03-02T20:22:51.208Z,73.58
2024-03-02T20:24:52.939Z,73.60
2024-03-02T20:26:54.666Z,73.67
2024-03-02T20:28:57.072Z,73.55
2024-03-02T20:30:58.815Z,73.62
2024-03-02T20:33:00.631Z,73.52
2024-03-02T20:35:02.598Z,73.52
2024-03-02T20:37:05.732Z,73.46
2024-03-02T20:39:07.907Z,73.36
2024-03-02T20:41:20.734Z,73.49
2024-03-02T20:43:22.434Z,73.40
2024-03-02T20:45:24.524Z,73.41
2024-03-02T20:47:26.541Z,73.40
2024-03-02T20:49:31.410Z,73.44
2024-03-02T20:51:33.318Z,73.18
2024-03-02T20:53:35.062Z,73.43
2024-03-02T20:55:37.975Z,73.48
2024-03-02T20:57:42.502Z,73.36
2024-03-02T20:59:44.332Z,73.36
2024-03-02T21:01:48.828Z,73.53
2024-03-02T21:03:50.660Z,73.18
2024-03-02T21:05:52.464Z,73.38
2024-03-02T21:07:54.233Z,73.57
2024-03-02T21:09:58.290Z,73.48
2024-03-02T21:12:00.128Z,73.59
2024-03-02T21:14:01.923Z,73.55
2024-03-02T21:16:04.571Z,73.56
2024-03-02T21:18:06.332Z,73.84
2024-03-02T21:20:10.301Z,73.62
2024-03-02T21:22:12.116Z,73.83
2024-03-02T21:24:13.902Z,73.59
2024-03-02T21:26:15.593Z,73.96
2024-03-02T21:28:17.353Z,73.95
2024-03-02T21:30:19.710Z,74.07
2024-03-02T21:32:21.417Z,74.16
2024-03-02T21:34:23.275Z,74.02
2024-03-02T21:36:25.063Z,73.90
2024-03-02T21:38:26.816Z,74.26
2024-03-02T21:40:28.624Z,74.25
2024-03-02T21:42:30.396Z,74.16
2024-03-02T21:44:32.496Z,74.25
2024-03-02T21:46:34.248Z,74.29
2024-03-02T21:48:35.959Z,74.36
2024-03-02T21:50:37.873Z,74.25
2024-03-02T21:52:42.700Z,74.41
2024-03-02T21:54:44.444Z,74.26
2024-03-02T21:56:47.053Z,74.43
2024-03-02T21:58:49.658Z,74.44
2024-03-02T22:00:51.500Z,74.49
2024-03-02T22:02:56.713Z,74.52
2024-03-02T22:05:00.776Z,74.49
2024-03-02T22:07:02.560Z,74.67
2024-03-02T22:09:04.356Z,74.76
2024-03-02T22:11:06.304Z,74.70
2024-03-02T22:13:08.144Z,74.68
2024-03-02T22:15:10.405Z,74.77
2024-03-02T22:17:13.365Z,74.90
2024-03-02T22:19:15.249Z,74.81
2024-03-02T22:21:17.034Z,74.89
2024-03-02T22:23:18.712Z,75.00
2024-03-02T22:25:40.405Z,74.95
2024-03-02T22:27:42.612Z,74.70
2024-03-02T22:29:44.596Z,75.30
2024-03-02T22:31:46.313Z,74.97
2024-03-02T22:33:48.176Z,75.03
2024-03-02T22:35:49.880Z,75.00
2024-03-02T22:37:51.764Z,75.20
2024-03-02T22:39:53.501Z,75.01
2024-03-02T22:41:56.310Z,74.95
2024-03-02T22:43:59.529Z,75.28
2024-03-02T22:46:01.325Z,75.19
2024-03-02T22:48:04.511Z,75.25
2024-03-02T22:50:07.448Z,75.23
2024-03-02T22:52:09.284Z,75.17
2024-03-02T22:54:11.052Z,75.33
2024-03-02T22:56:12.789Z,75.06
2024-03-02T22:58:14.550Z,75.31
2024-03-02T23:00:34.672Z,75.23
2024-03-02T23:02:36.430Z,75.36
2024-03-02T23:04:38.123Z,75.01
2024-03-02T23:06:39.990Z,75.20
2024-03-02T23:08:41.701Z,75.31
2024-03-02T23:10:43.536Z,75.32
2024-03-02T23:12:45.368Z,75.20
2024-03-02T23:14:47.168Z,75.31
2024-03-02T23:16:48.892Z,75.12
2024-03-02T23:18:52.317Z,75.27
2024-03-02T23:20:54.393Z,75.20
2024-03-02T23:22:56.213Z,75.14
2024-03-02T23:24:57.959Z,75.37
2024-03-02T23:26:59.656Z,75.11
2024-03-02T23:29:01.392Z,75.32
2024-03-02T23:31:03.208Z,75.61
2024-03-02T23:33:05.421Z,75.68
2024-03-02T23:35:07.478Z,75.72
2024-03-02T23:37:09.239Z,75.33
2024-03-02T23:39:11.501Z,75.36
2024-03-02T23:41:16.014Z,75.93
2024-03-02T23:43:17.948Z,75.76
2024-03-02T23:45:19.669Z,75.95
2024-03-02T23:47:22.062Z,75.91
2024-03-02T23:49:23.827Z,75.94
2024-03-02T23:51:25.554Z,75.83
2024-03-02T23:53:27.333Z,75.83
2024-03-02T23:55:39.617Z,75.90
2024-03-02T23:57:48.622Z,76.01
2024-03-02T23:59:50.301Z,76.15
